ADDS METAR Data INFO
IDs: Format: Raw Decoded Include TAF

Data at: 0143 UTC 19 Oct 2017

EDDV 190120Z 17003KT 140V200 0200 R09L/0450N R09R/0450N FG OVC001 11/11 Q1013

TAF EDDV 182300Z 1900/1924 09003KT 0500 FG OVC001
  TEMPO 1900/1907 0200 FG
  BECMG 1908/1910 2500 BR BKN004
  BECMG 1910/1912 16006KT CAVOK